Fromberg, Montana
Current Conditions -  °F | °C
As of 2:53 AM on Sunday 21 Dec 2014 (Local Time) from KBIL Reporting Station
Overcast Overcast  
Wind Chill: 27°   Ceiling: 22000
Heat Index: 34°   Visibility: 10mi
Dew Point: 22°   Wind: 8mph
Humidity: 61%   Direction: 230°SW
Pressure: 29.52"   Gusts: NA
Location:  45.39°N, 108.91°W
Report Text: KBIL 210953Z 23007KT 10SM SCT140 OVC220 01/M06 A2952 RMK AO2 SLP015 T00111056
Loading
Personal Weather Stations






























Interactive Weather Map New forecast layout! Learn more

10-Day Weather Forecast

Advertisements
Track Severe Weather on mobile